createdAt,value
2018-05-12T00:00:47.159Z,96.50
2018-05-12T00:03:13.415Z,96.50
2018-05-12T00:05:40.365Z,96.70
2018-05-12T00:08:07.384Z,97.00
2018-05-12T00:10:33.626Z,97.00
2018-05-12T00:12:59.877Z,97.30
2018-05-12T00:15:26.115Z,97.40
2018-05-12T00:17:52.447Z,97.40
2018-05-12T00:20:18.660Z,97.30
2018-05-12T00:22:44.899Z,97.20
2018-05-12T00:25:11.114Z,97.10
2018-05-12T00:27:38.091Z,97.60
2018-05-12T00:30:04.362Z,97.60
2018-05-12T00:32:30.611Z,97.80
2018-05-12T00:34:56.838Z,97.80
2018-05-12T00:37:23.087Z,97.70
2018-05-12T00:39:49.470Z,98.10
2018-05-12T00:42:15.715Z,97.90
2018-05-12T00:44:41.968Z,98.00
2018-05-12T00:47:08.931Z,98.30
2018-05-12T00:49:35.904Z,98.20
2018-05-12T00:52:02.148Z,98.20
2018-05-12T00:54:28.390Z,98.10
2018-05-12T00:56:54.617Z,98.10
2018-05-12T00:59:20.862Z,98.10
2018-05-12T01:01:47.078Z,98.20
2018-05-12T01:04:14.052Z,98.50
2018-05-12T01:06:40.310Z,98.50
2018-05-12T01:09:06.553Z,98.60
2018-05-12T01:11:32.774Z,98.80
2018-05-12T01:13:59.003Z,99.00
2018-05-12T01:16:25.980Z,99.30
2018-05-12T01:18:52.262Z,99.30
2018-05-12T01:21:18.488Z,99.30
2018-05-12T01:23:44.726Z,99.20
2018-05-12T01:26:10.950Z,99.30
2018-05-12T01:28:37.214Z,99.40
2018-05-12T01:31:03.480Z,99.40
2018-05-12T01:33:29.724Z,99.40
2018-05-12T01:35:55.981Z,99.40
2018-05-12T01:38:22.946Z,99.50
2018-05-12T01:40:50.037Z,99.50
2018-05-12T01:43:16.295Z,99.40
2018-05-12T01:45:42.528Z,99.50
2018-05-12T01:48:08.762Z,99.60
2018-05-12T01:50:35.001Z,99.90
2018-05-12T01:53:01.258Z,99.90
2018-05-12T01:55:27.481Z,99.90
2018-05-12T01:57:53.690Z,99.90
2018-05-12T02:00:20.681Z,99.90
2018-05-12T02:02:46.903Z,99.90
2018-05-12T02:05:13.129Z,99.90
2018-05-12T02:07:40.079Z,99.90
2018-05-12T02:10:07.089Z,99.90
2018-05-12T02:12:33.357Z,99.90
2018-05-12T02:14:59.593Z,99.90
2018-05-12T02:17:25.815Z,99.90
2018-05-12T02:19:52.057Z,99.90
2018-05-12T02:22:18.296Z,99.90
2018-05-12T02:24:44.527Z,99.90
2018-05-12T02:27:10.747Z,99.90
2018-05-12T02:29:36.999Z,99.90
2018-05-12T02:32:03.235Z,99.90
2018-05-12T02:34:29.462Z,99.90
2018-05-12T02:36:55.683Z,99.90
2018-05-12T02:39:22.649Z,99.90
2018-05-12T02:41:49.838Z,99.90
2018-05-12T02:44:16.096Z,99.90
2018-05-12T02:46:42.327Z,99.90
2018-05-12T02:49:08.681Z,99.90
2018-05-12T02:51:34.825Z,99.90
2018-05-12T02:54:01.079Z,99.90
2018-05-12T02:56:27.301Z,99.90
2018-05-12T02:58:53.530Z,99.90
2018-05-12T03:01:19.746Z,99.90
2018-05-12T03:03:45.971Z,99.90
2018-05-12T03:06:12.954Z,99.90
2018-05-12T03:08:39.183Z,99.90
2018-05-12T03:11:05.425Z,99.90
2018-05-12T03:13:31.730Z,99.90
2018-05-12T03:15:57.968Z,99.90
2018-05-12T03:18:24.175Z,99.90
2018-05-12T03:20:50.414Z,99.90
2018-05-12T03:23:16.710Z,99.90
2018-05-12T03:25:43.686Z,99.90
2018-05-12T03:28:09.913Z,99.90
2018-05-12T03:30:36.896Z,99.90
2018-05-12T03:33:03.132Z,99.90
2018-05-12T03:35:29.376Z,99.90
2018-05-12T03:37:55.590Z,99.90
2018-05-12T03:40:22.582Z,99.90
2018-05-12T03:42:48.926Z,99.90
2018-05-12T03:45:15.178Z,99.90
2018-05-12T03:47:41.386Z,99.90
2018-05-12T03:50:07.630Z,99.90
2018-05-12T03:52:33.859Z,99.90
2018-05-12T03:55:00.111Z,99.90
2018-05-12T03:57:26.335Z,99.90
2018-05-12T03:59:53.307Z,99.90
2018-05-12T04:02:20.273Z,99.90
2018-05-12T04:04:58.689Z,99.90
2018-05-12T04:07:38.761Z,99.90
2018-05-12T04:10:17.215Z,99.90
2018-05-12T04:12:43.461Z,99.90
2018-05-12T04:15:09.686Z,99.90
2018-05-12T04:17:35.961Z,99.90
2018-05-12T04:20:02.216Z,99.90
2018-05-12T04:22:29.210Z,99.90
2018-05-12T04:24:55.433Z,99.90
2018-05-12T04:27:22.427Z,99.90
2018-05-12T04:29:48.631Z,99.90
2018-05-12T04:32:14.857Z,99.90
2018-05-12T04:34:41.821Z,99.90
2018-05-12T04:37:08.823Z,99.90
2018-05-12T04:39:35.025Z,99.90
2018-05-12T04:42:02.029Z,99.60
2018-05-12T04:44:28.263Z,99.60
2018-05-12T04:46:54.491Z,99.70
2018-05-12T04:49:20.716Z,99.70
2018-05-12T04:51:46.961Z,99.80
2018-05-12T04:54:13.241Z,99.90
2018-05-12T04:56:39.448Z,99.90
2018-05-12T04:59:05.679Z,99.90
2018-05-12T05:01:31.921Z,99.90
2018-05-12T05:03:58.166Z,99.90
2018-05-12T05:06:24.396Z,99.90
2018-05-12T05:08:50.629Z,99.90
2018-05-12T05:11:17.615Z,99.90
2018-05-12T05:13:43.891Z,99.90
2018-05-12T05:16:10.140Z,99.90
2018-05-12T05:18:36.367Z,99.90
2018-05-12T05:21:02.582Z,99.90
2018-05-12T05:23:28.824Z,99.90
2018-05-12T05:25:55.031Z,99.90
2018-05-12T05:28:22.003Z,99.90
2018-05-12T05:30:48.245Z,99.90
2018-05-12T05:33:14.488Z,99.90
2018-05-12T05:35:40.712Z,99.90
2018-05-12T05:38:06.950Z,99.90
2018-05-12T05:40:33.903Z,99.90
2018-05-12T05:43:00.867Z,99.90
2018-05-12T05:45:27.850Z,99.90
2018-05-12T05:47:54.088Z,99.90
2018-05-12T05:50:20.330Z,99.90
2018-05-12T05:52:46.570Z,99.90
2018-05-12T05:55:12.790Z,99.90
2018-05-12T05:57:39.036Z,99.80
2018-05-12T06:00:05.309Z,99.70
2018-05-12T06:02:31.530Z,99.50
2018-05-12T06:04:57.746Z,99.40
2018-05-12T06:07:24.732Z,99.30
2018-05-12T06:09:50.950Z,99.30
2018-05-12T06:12:17.263Z,99.20
2018-05-12T06:14:43.490Z,98.90
2018-05-12T06:17:09.742Z,98.60
2018-05-12T06:19:35.954Z,98.10
2018-05-12T06:22:02.211Z,97.90
2018-05-12T06:24:28.461Z,97.90
2018-05-12T06:26:54.691Z,97.50
2018-05-12T06:29:20.940Z,97.50
2018-05-12T06:31:47.158Z,97.40
2018-05-12T06:34:13.383Z,97.10
2018-05-12T06:36:39.605Z,96.90
2018-05-12T06:39:05.855Z,96.90
2018-05-12T06:41:32.072Z,96.70
2018-05-12T06:43:58.333Z,96.60
2018-05-12T06:46:24.580Z,96.40
2018-05-12T06:48:50.835Z,96.20
2018-05-12T06:51:17.044Z,95.80
2018-05-12T06:53:43.271Z,95.90
2018-05-12T06:56:10.244Z,95.70
2018-05-12T06:58:36.463Z,95.70
2018-05-12T07:01:03.430Z,95.40
2018-05-12T07:03:30.415Z,95.20
2018-05-12T07:05:56.639Z,95.20
2018-05-12T07:08:22.853Z,94.90
2018-05-12T07:10:49.099Z,94.70
2018-05-12T07:13:15.523Z,94.60
2018-05-12T07:15:41.765Z,94.30
2018-05-12T07:18:07.993Z,94.10
2018-05-12T07:20:34.207Z,94.00
2018-05-12T07:23:00.429Z,93.80
2018-05-12T07:25:26.691Z,93.50
2018-05-12T07:27:52.889Z,93.40
2018-05-12T07:30:19.915Z,93.20
2018-05-12T07:32:46.156Z,93.20
2018-05-12T07:35:12.399Z,92.80
2018-05-12T07:37:38.634Z,92.60
2018-05-12T07:40:04.841Z,92.40
2018-05-12T07:42:31.059Z,92.10
2018-05-12T07:44:58.040Z,91.60
2018-05-12T07:47:24.286Z,91.60
2018-05-12T07:49:50.511Z,91.20
2018-05-12T07:52:16.756Z,91.10
2018-05-12T07:54:42.978Z,90.90
2018-05-12T07:57:09.944Z,90.90
2018-05-12T07:59:36.204Z,90.90
2018-05-12T08:02:02.411Z,90.50
2018-05-12T08:04:29.396Z,89.90
2018-05-12T08:06:55.624Z,89.90
2018-05-12T08:09:21.875Z,89.70
2018-05-12T08:11:48.110Z,89.10
2018-05-12T08:14:14.359Z,89.00
2018-05-12T08:16:40.591Z,88.50
2018-05-12T08:19:06.846Z,88.30
2018-05-12T08:21:33.060Z,87.80
2018-05-12T08:24:00.024Z,86.80
2018-05-12T08:26:26.242Z,86.70
2018-05-12T08:28:53.212Z,86.00
2018-05-12T08:31:20.170Z,85.30
2018-05-12T08:33:47.196Z,84.60
2018-05-12T08:36:13.435Z,84.60
2018-05-12T08:38:39.670Z,83.60
2018-05-12T08:41:05.912Z,83.00
2018-05-12T08:43:32.142Z,82.90
2018-05-12T08:45:58.387Z,83.20
2018-05-12T08:48:24.721Z,83.40
2018-05-12T08:50:51.637Z,84.10
2018-05-12T08:53:17.880Z,84.10
2018-05-12T08:55:44.120Z,84.20
2018-05-12T08:58:10.362Z,83.30
2018-05-12T09:00:36.601Z,83.00
2018-05-12T09:03:02.814Z,81.90
2018-05-12T09:05:29.066Z,81.60
2018-05-12T09:07:56.065Z,80.20
2018-05-12T09:10:22.323Z,80.20
2018-05-12T09:12:48.561Z,78.70
2018-05-12T09:15:14.807Z,77.40
2018-05-12T09:17:41.049Z,75.80
2018-05-12T09:20:07.295Z,74.00
2018-05-12T09:22:33.547Z,72.20
2018-05-12T09:24:59.775Z,71.70
2018-05-12T09:27:25.985Z,71.40
2018-05-12T09:29:52.240Z,71.10
2018-05-12T09:32:18.485Z,71.10
2018-05-12T09:34:44.757Z,70.70
2018-05-12T09:37:11.776Z,71.10
2018-05-12T09:39:37.961Z,71.10
2018-05-12T09:42:04.933Z,70.80
2018-05-12T09:44:31.882Z,70.80
2018-05-12T09:46:58.856Z,71.10
2018-05-12T09:49:25.113Z,71.10
2018-05-12T09:51:51.364Z,70.80
2018-05-12T09:54:17.600Z,69.60
2018-05-12T09:56:43.850Z,68.70
2018-05-12T09:59:10.092Z,67.90
2018-05-12T10:01:36.329Z,67.80
2018-05-12T10:04:02.579Z,67.00
2018-05-12T10:06:28.834Z,65.60
2018-05-12T10:08:55.054Z,64.20
2018-05-12T10:11:21.298Z,60.90
2018-05-12T10:13:47.582Z,60.50
2018-05-12T10:16:13.808Z,59.70
2018-05-12T10:18:40.043Z,58.10
2018-05-12T10:21:06.274Z,56.60
2018-05-12T10:23:32.518Z,55.80
2018-05-12T10:25:58.771Z,55.00
2018-05-12T10:28:25.006Z,55.10
2018-05-12T10:30:51.256Z,54.70
2018-05-12T10:33:17.497Z,55.10
2018-05-12T10:35:43.750Z,54.00
2018-05-12T10:38:10.721Z,51.70
2018-05-12T10:40:36.988Z,51.60
2018-05-12T10:43:03.259Z,51.40
2018-05-12T10:45:29.528Z,50.80
2018-05-12T10:47:55.734Z,49.70
2018-05-12T10:50:21.998Z,48.90
2018-05-12T10:52:48.256Z,48.10
2018-05-12T10:55:15.221Z,46.20
2018-05-12T10:57:41.474Z,46.30
2018-05-12T11:00:07.706Z,45.10
2018-05-12T11:02:34.674Z,45.00
2018-05-12T11:05:00.886Z,44.90
2018-05-12T11:07:27.868Z,44.70
2018-05-12T11:09:54.098Z,44.70
2018-05-12T11:12:21.174Z,43.70
2018-05-12T11:14:47.389Z,43.70
2018-05-12T11:17:14.385Z,41.90
2018-05-12T11:19:40.672Z,41.90
2018-05-12T11:22:06.913Z,42.10
2018-05-12T11:24:33.123Z,42.10
2018-05-12T11:26:59.366Z,42.00
2018-05-12T11:29:25.624Z,41.80
2018-05-12T11:31:51.851Z,41.10
2018-05-12T11:34:18.081Z,40.80
2018-05-12T11:36:44.318Z,41.10
2018-05-12T11:39:10.527Z,40.60
2018-05-12T11:41:36.777Z,40.30
2018-05-12T11:44:03.051Z,40.30
2018-05-12T11:46:29.283Z,39.80
2018-05-12T11:48:55.565Z,39.80
2018-05-12T11:51:21.834Z,39.00
2018-05-12T11:53:48.098Z,38.90
2018-05-12T11:56:14.337Z,38.80
2018-05-12T11:58:40.553Z,38.50
2018-05-12T12:01:06.793Z,38.40
2018-05-12T12:03:33.775Z,37.90
2018-05-12T12:05:59.987Z,37.80
2018-05-12T12:08:26.945Z,36.60
2018-05-12T12:10:53.915Z,35.70
2018-05-12T12:13:20.236Z,35.60
2018-05-12T12:15:47.213Z,36.50
2018-05-12T12:18:13.465Z,36.50
2018-05-12T12:20:39.721Z,36.60
2018-05-12T12:23:05.959Z,36.20
2018-05-12T12:25:32.210Z,36.50
2018-05-12T12:27:58.458Z,37.00
2018-05-12T12:30:24.662Z,36.70
2018-05-12T12:32:50.903Z,36.00
2018-05-12T12:35:17.132Z,36.00
2018-05-12T12:37:43.379Z,35.00
2018-05-12T12:40:09.597Z,35.20
2018-05-12T12:42:36.571Z,34.70
2018-05-12T12:45:02.953Z,34.70
2018-05-12T12:47:29.076Z,34.30
2018-05-12T12:49:55.342Z,33.70
2018-05-12T12:52:21.587Z,33.70
2018-05-12T12:54:47.832Z,32.70
2018-05-12T12:57:14.048Z,32.90
2018-05-12T12:59:40.296Z,32.90
2018-05-12T13:02:06.494Z,33.40
2018-05-12T13:04:32.734Z,33.70
2018-05-12T13:06:58.947Z,33.20
2018-05-12T13:09:25.168Z,33.50
2018-05-12T13:11:51.412Z,32.90
2018-05-12T13:14:17.664Z,32.00
2018-05-12T13:16:43.891Z,31.70
2018-05-12T13:19:10.132Z,31.30
2018-05-12T13:21:36.399Z,31.20
2018-05-12T13:24:02.646Z,31.40
2018-05-12T13:26:29.625Z,31.40
2018-05-12T13:28:55.890Z,31.40
2018-05-12T13:31:22.115Z,31.70
2018-05-12T13:33:48.378Z,31.60
2018-05-12T13:36:14.596Z,32.40
2018-05-12T13:38:40.836Z,32.40
2018-05-12T13:41:07.061Z,32.30
2018-05-12T13:43:33.303Z,32.20
2018-05-12T13:45:59.524Z,32.20
2018-05-12T13:48:25.755Z,32.00
2018-05-12T13:50:51.989Z,32.00
2018-05-12T13:53:18.346Z,31.70
2018-05-12T13:55:45.367Z,31.00
2018-05-12T13:58:11.596Z,30.90
2018-05-12T14:00:37.862Z,31.00
2018-05-12T14:03:04.089Z,31.40
2018-05-12T14:05:30.285Z,30.10
2018-05-12T14:07:56.537Z,30.20
2018-05-12T14:10:22.779Z,30.00
2018-05-12T14:12:49.064Z,30.00
2018-05-12T14:15:15.321Z,30.10
2018-05-12T14:17:41.535Z,29.80
2018-05-12T14:20:07.773Z,29.90
2018-05-12T14:22:34.780Z,31.00
2018-05-12T14:25:01.007Z,30.90
2018-05-12T14:27:27.981Z,31.00
2018-05-12T14:29:55.041Z,30.50
2018-05-12T14:32:21.217Z,30.50
2018-05-12T14:34:47.468Z,30.30
2018-05-12T14:37:13.672Z,29.90
2018-05-12T14:39:39.893Z,30.30
2018-05-12T14:42:06.867Z,33.30
2018-05-12T14:44:33.119Z,33.20
2018-05-12T14:46:59.332Z,34.70
2018-05-12T14:49:26.341Z,36.60
2018-05-12T14:51:52.571Z,36.50
2018-05-12T14:54:19.090Z,36.40
2018-05-12T14:56:45.340Z,35.30
2018-05-12T14:59:11.568Z,35.70
2018-05-12T15:01:37.787Z,36.70
2018-05-12T15:04:04.032Z,37.00
2018-05-12T15:06:31.010Z,35.60
2018-05-12T15:08:57.236Z,35.60
2018-05-12T15:11:23.488Z,34.60
2018-05-12T15:13:50.524Z,34.40
2018-05-12T15:16:16.834Z,34.40
2018-05-12T15:18:43.073Z,35.40
2018-05-12T15:21:09.313Z,36.10
2018-05-12T15:23:36.290Z,37.20
2018-05-12T15:26:02.550Z,37.20
2018-05-12T15:28:29.509Z,39.30
2018-05-12T15:30:56.500Z,39.30
2018-05-12T15:33:22.743Z,39.20
2018-05-12T15:35:48.984Z,38.20
2018-05-12T15:38:15.627Z,36.90
2018-05-12T15:40:41.863Z,35.60
2018-05-12T15:43:08.115Z,35.40
2018-05-12T15:45:34.352Z,35.00
2018-05-12T15:48:00.600Z,34.70
2018-05-12T15:50:26.872Z,34.20
2018-05-12T15:52:53.844Z,33.90
2018-05-12T15:55:20.394Z,33.90
2018-05-12T15:57:46.648Z,32.80
2018-05-12T16:00:12.920Z,32.90
2018-05-12T16:02:39.188Z,33.40
2018-05-12T16:05:05.438Z,33.10
2018-05-12T16:07:31.674Z,33.20
2018-05-12T16:09:57.895Z,33.80
2018-05-12T16:12:24.214Z,34.30
2018-05-12T16:14:50.508Z,34.80
2018-05-12T16:17:23.536Z,35.20
2018-05-12T16:19:49.763Z,35.10
2018-05-12T16:22:15.995Z,35.10
2018-05-12T16:24:42.217Z,35.80
2018-05-12T16:27:08.465Z,35.80
2018-05-12T16:29:34.691Z,35.80
2018-05-12T16:32:00.957Z,36.40
2018-05-12T16:34:27.198Z,37.40
2018-05-12T16:36:53.417Z,38.90
2018-05-12T16:39:19.665Z,40.00
2018-05-12T16:41:45.920Z,40.90
2018-05-12T16:44:12.143Z,42.20
2018-05-12T16:46:38.385Z,44.80
2018-05-12T16:49:04.596Z,46.90
2018-05-12T16:51:30.845Z,48.60
2018-05-12T16:53:57.064Z,49.20
2018-05-12T16:56:23.486Z,49.40
2018-05-12T16:58:49.703Z,50.10
2018-05-12T17:01:15.935Z,52.00
2018-05-12T17:03:42.161Z,53.90
2018-05-12T17:06:08.367Z,56.80
2018-05-12T17:08:34.580Z,58.70
2018-05-12T17:11:00.789Z,60.00
2018-05-12T17:13:27.043Z,61.90
2018-05-12T17:15:53.260Z,63.00
2018-05-12T17:18:19.492Z,65.10
2018-05-12T17:20:45.720Z,66.40
2018-05-12T17:23:11.969Z,68.00
2018-05-12T17:25:38.196Z,70.00
2018-05-12T17:28:04.431Z,71.90
2018-05-12T17:30:31.377Z,76.80
2018-05-12T17:32:57.600Z,76.80
2018-05-12T17:35:23.814Z,80.90
2018-05-12T17:37:50.138Z,83.70
2018-05-12T17:40:17.058Z,89.40
2018-05-12T17:42:44.024Z,90.50
2018-05-12T17:45:10.268Z,90.40
2018-05-12T17:47:36.527Z,91.20
2018-05-12T17:50:02.823Z,92.00
2018-05-12T17:52:29.048Z,92.30
2018-05-12T17:54:55.270Z,92.70
2018-05-12T17:57:21.762Z,93.10
2018-05-12T17:59:48.777Z,92.70
2018-05-12T18:02:15.063Z,92.70
2018-05-12T18:04:41.301Z,92.30
2018-05-12T18:07:08.276Z,92.30
2018-05-12T18:09:34.517Z,92.30
2018-05-12T18:12:00.862Z,92.70
2018-05-12T18:14:27.104Z,92.70
2018-05-12T18:16:53.333Z,93.00
2018-05-12T18:19:20.304Z,93.60
2018-05-12T18:21:46.547Z,93.60
2018-05-12T18:24:12.765Z,93.20
2018-05-12T18:26:39.045Z,93.40
2018-05-12T18:29:05.300Z,93.50
2018-05-12T18:31:31.536Z,93.80
2018-05-12T18:33:57.788Z,94.00
2018-05-12T18:36:24.061Z,94.30
2018-05-12T18:38:50.281Z,94.60
2018-05-12T18:41:16.553Z,95.00
2018-05-12T18:43:43.529Z,95.90
2018-05-12T18:46:09.787Z,95.90
2018-05-12T18:48:36.037Z,96.30
2018-05-12T18:51:02.263Z,96.60
2018-05-12T18:53:28.507Z,96.70
2018-05-12T18:55:54.761Z,96.90
2018-05-12T18:58:21.089Z,96.80
2018-05-12T19:00:47.349Z,96.80
2018-05-12T19:03:13.569Z,96.70
2018-05-12T19:05:39.852Z,96.60
2018-05-12T19:08:06.129Z,96.40
2018-05-12T19:10:33.119Z,96.80
2018-05-12T19:12:59.413Z,96.80
2018-05-12T19:15:26.438Z,97.00
2018-05-12T19:17:52.641Z,97.00
2018-05-12T19:20:18.925Z,97.10
2018-05-12T19:22:45.154Z,96.90
2018-05-12T19:25:11.403Z,96.80
2018-05-12T19:27:37.706Z,97.20
2018-05-12T19:30:03.962Z,96.80
2018-05-12T19:32:30.246Z,96.70
2018-05-12T19:34:56.502Z,96.70
2018-05-12T19:37:22.743Z,96.70
2018-05-12T19:39:49.755Z,97.00
2018-05-12T19:42:16.012Z,96.80
2018-05-12T19:44:42.263Z,96.80
2018-05-12T19:47:08.536Z,97.10
2018-05-12T19:49:34.845Z,97.20
2018-05-12T19:52:01.046Z,97.20
2018-05-12T19:54:27.276Z,97.30
2018-05-12T19:56:53.598Z,97.60
2018-05-12T19:59:20.244Z,97.80
2018-05-12T20:01:47.982Z,97.80
2018-05-12T20:04:14.190Z,98.10
2018-05-12T20:06:40.476Z,98.20
2018-05-12T20:09:06.723Z,98.20
2018-05-12T20:11:33.786Z,98.40
2018-05-12T20:14:00.021Z,98.60
2018-05-12T20:16:26.329Z,98.60
2018-05-12T20:18:59.372Z,98.70
2018-05-12T20:21:25.655Z,98.80
2018-05-12T20:23:51.924Z,99.50
2018-05-12T20:26:18.934Z,99.30
2018-05-12T20:28:45.181Z,99.30
2018-05-12T20:31:11.494Z,99.30
2018-05-12T20:33:37.763Z,99.30
2018-05-12T20:36:04.009Z,99.00
2018-05-12T20:38:30.290Z,99.40
2018-05-12T20:40:56.570Z,99.50
2018-05-12T20:43:23.571Z,99.40
2018-05-12T20:45:49.821Z,99.30
2018-05-12T20:48:16.057Z,99.20
2018-05-12T20:50:42.323Z,98.90
2018-05-12T20:53:08.545Z,98.70
2018-05-12T20:55:34.802Z,98.60
2018-05-12T20:58:01.023Z,98.50
2018-05-12T21:00:27.345Z,98.50
2018-05-12T21:02:53.638Z,98.40
2018-05-12T21:05:19.872Z,98.50
2018-05-12T21:07:46.112Z,98.50
2018-05-12T21:10:12.349Z,98.60
2018-05-12T21:12:38.603Z,98.70
2018-05-12T21:15:04.833Z,98.80
2018-05-12T21:17:31.060Z,98.90
2018-05-12T21:19:57.290Z,99.30
2018-05-12T21:22:23.550Z,99.20
2018-05-12T21:24:49.795Z,99.40
2018-05-12T21:27:16.046Z,99.50
2018-05-12T21:29:42.276Z,99.50
2018-05-12T21:32:08.537Z,99.60
2018-05-12T21:34:34.781Z,99.60
2018-05-12T21:37:01.020Z,99.60
2018-05-12T21:39:27.986Z,99.60
2018-05-12T21:41:55.007Z,99.50
2018-05-12T21:44:21.230Z,99.50
2018-05-12T21:46:48.238Z,99.60
2018-05-12T21:49:15.217Z,99.60
2018-05-12T21:51:41.492Z,99.60
2018-05-12T21:54:07.702Z,99.50
2018-05-12T21:56:33.945Z,99.50
2018-05-12T21:59:00.295Z,99.60
2018-05-12T22:01:26.927Z,99.70
2018-05-12T22:03:53.211Z,99.70
2018-05-12T22:06:19.502Z,99.80
2018-05-12T22:08:46.514Z,99.90
2018-05-12T22:11:12.762Z,99.90
2018-05-12T22:13:39.017Z,99.90
2018-05-12T22:16:06.022Z,99.90
2018-05-12T22:18:32.354Z,99.90
2018-05-12T22:20:58.514Z,99.90
2018-05-12T22:23:24.797Z,99.80
2018-05-12T22:25:51.024Z,99.80
2018-05-12T22:28:17.266Z,99.90
2018-05-12T22:30:43.496Z,99.90
2018-05-12T22:33:09.760Z,99.90
2018-05-12T22:35:36.002Z,99.90
2018-05-12T22:38:02.248Z,99.90
2018-05-12T22:40:30.299Z,99.90
2018-05-12T22:42:56.591Z,99.80
2018-05-12T22:45:23.572Z,99.70
2018-05-12T22:47:49.795Z,99.60
2018-05-12T22:50:16.757Z,99.70
2018-05-12T22:52:43.021Z,99.70
2018-05-12T22:55:09.251Z,99.70
2018-05-12T22:57:35.519Z,99.80
2018-05-12T23:00:01.754Z,99.70
2018-05-12T23:02:28.243Z,99.80
2018-05-12T23:04:55.212Z,99.90
2018-05-12T23:07:22.185Z,99.90
2018-05-12T23:09:48.433Z,99.90
2018-05-12T23:12:14.727Z,99.90
2018-05-12T23:14:40.972Z,99.90
2018-05-12T23:17:07.206Z,99.90
2018-05-12T23:19:33.434Z,99.90
2018-05-12T23:21:59.652Z,99.90
2018-05-12T23:24:25.888Z,99.90
2018-05-12T23:26:52.120Z,99.90
2018-05-12T23:29:18.348Z,99.90
2018-05-12T23:31:44.588Z,99.90
2018-05-12T23:34:10.834Z,99.90
2018-05-12T23:36:37.052Z,99.90
2018-05-12T23:39:03.335Z,99.90
2018-05-12T23:41:29.560Z,99.90
2018-05-12T23:43:55.788Z,99.90
2018-05-12T23:46:22.758Z,99.90
2018-05-12T23:48:49.019Z,99.90
2018-05-12T23:51:15.301Z,99.90
2018-05-12T23:53:41.523Z,99.90
2018-05-12T23:56:07.750Z,99.90
2018-05-12T23:58:33.954Z,99.90
